RJSY(METAR)
04/18 21:00
METAR RJSY 181200Z 10005KT CAVOK 12/05 Q1010 RMK A2984=
戻る
トップページへ戻る
IMOC Co,.Ltd.